Cyrus, Minnesota
Current Conditions -  °F | °C
As of 9:25 PM on Monday 20 Oct 2014 (Local Time) from KMOX Reporting Station
Clear Clear  
Wind Chill: 43°   Ceiling: Unl
Heat Index: 46°   Visibility: 10mi
Dew Point: 37°   Wind: 7mph
Humidity: 71%   Direction: 60°ENE
Pressure: 30.04"   Gusts: NA
Location:  45.61°N, 95.74°W
Report Text: KMOX 210225Z AUTO 06006KT 10SM CLR 08/03 A3004 RMK AO2
Loading
Personal Weather Stations






























Interactive Weather Map
Tropical Storm Tracking
New forecast layout! Learn more

10-Day Weather Forecast

Advertisements
Track Severe Weather on mobile